Flugplatz Illertissen

Für EDMI sind keine METAR/TAF Berichte vorhanden.
Es werden die Flugwettermeldungen vom Flugplatz Laupheim Airport in 16 km Entfernung angezeigt.

Bericht für ETHL

vom 25.10. um 15:20 UTC

variable Windrichtung mit 1 kt

Sichtweite 10 km oder mehr

aufgebrochene Bewölkung in 12000 ft

Temperatur 12.0°C

Taupunkt 7.0°C

Luftfeuchtigkeit 71%

Luftdruck 1020 hPa

ETHL 251520Z VRB01KT 9999 BKN120 12/07 Q1020 BLU BLU

Prognose für ETHL

vom 25.10. um 13:20 UTC

Zwischen 14:00 UTC und 17:00 UTC

Wind 4 kt aus 240°

Sichtweite 8000 m

keine signifikanten Wettererscheinungen

aufgebrochene Bewölkung in 16000 ft


Zwischen 17:00 und 19:00 UTC übergehend zu

variable Windrichtung mit 3 kt

Sichtweite 3000 m

Nebelschwaden

gering bewölkt in 200 ft

aufgelockert bewölkt in 12000 ft

aufgebrochene Bewölkung in 24000 ft


Zwischen 19:00 UTC und 23:00 UTC mit einer Wahrscheinlichkeit von 30%

variable Windrichtung mit 1 kt

Sichtweite 500 m

Nebel

aufgelockert bewölkt in 100 ft

gering bewölkt in 12000 ft

TAF ETHL 251320Z 2514/2523 24004KT 8000 NSW BKN160 BECMG 2517/2519 VRB03KT 3000 BCFG FEW002 SCT120 BKN240 PROB30 2519/2523 VRB01KT 0500 FG SCT001 FEW120
Impressum